Time;durP1;ratioP1;P1;durP2;ratioP2;P2;SDS_P1;SDS_P2;PMS_P1;PMS_P2;Temp;Humidity;BMP_temperature;BMP_pressure;BME280_temperature;BME280_humidity;BME280_pressure;Samples;Min_cycle;Max_cycle;Signal;HPM_P1;HPM_P2
2021/03/13 00:02:51;;;;;;;5.33;4.83;;;8.90;99.80;;;;;;6275654;28;20807;-64
2021/03/13 00:05:54;;;;;;;6.50;5.90;;;8.90;99.80;;;;;;6292123;28;20491;-64
2021/03/13 00:08:56;;;;;;;6.20;5.60;;;9.00;99.70;;;;;;6300278;28;20937;-64
2021/03/13 00:11:59;;;;;;;6.20;5.07;;;9.00;99.70;;;;;;6292766;28;20920;-63
2021/03/13 00:15:02;;;;;;;5.90;5.40;;;9.00;99.50;;;;;;6293302;28;20490;-62
2021/03/13 00:18:05;;;;;;;6.27;5.50;;;9.00;99.20;;;;;;6275408;28;20945;-65
2021/03/13 00:21:07;;;;;;;5.87;5.37;;;9.00;99.20;;;;;;6298591;28;20469;-64
2021/03/13 00:24:10;;;;;;;6.40;5.80;;;9.00;99.10;;;;;;6299636;28;20470;-63
2021/03/13 00:27:13;;;;;;;6.00;5.23;;;8.80;99.10;;;;;;6299937;28;20477;-64
2021/03/13 00:30:17;;;;;;;5.50;5.00;;;8.70;99.30;;;;;;6299936;28;20487;-63
2021/03/13 00:33:21;;;;;;;6.67;6.00;;;8.60;99.40;;;;;;6299215;28;20480;-62
2021/03/13 00:36:24;;;;;;;5.10;4.70;;;8.50;99.50;;;;;;6299382;28;20469;-64
2021/03/13 00:39:26;;;;;;;6.13;4.93;;;8.50;99.70;;;;;;6299521;28;20503;-64
2021/03/13 00:42:29;;;;;;;5.23;4.73;;;8.40;99.70;;;;;;6299797;28;20469;-64
2021/03/13 00:45:32;;;;;;;6.80;6.20;;;8.30;99.70;;;;;;6299377;28;20496;-65
2021/03/13 00:48:34;;;;;;;7.50;6.67;;;8.30;99.90;;;;;;6299732;28;20996;-64
2021/03/13 00:51:38;;;;;;;6.97;6.27;;;8.20;99.90;;;;;;6292261;28;20470;-65
2021/03/13 00:54:40;;;;;;;7.70;6.47;;;8.10;99.90;;;;;;6274611;28;20474;-63
2021/03/13 00:57:43;;;;;;;8.10;7.30;;;8.10;99.90;;;;;;6274501;28;20484;-62
2021/03/13 01:00:45;;;;;;;7.30;6.57;;;8.00;99.90;;;;;;6274444;28;20478;-63
2021/03/13 01:03:47;;;;;;;8.70;7.80;;;8.00;99.90;;;;;;6274546;28;20473;-64
2021/03/13 01:06:50;;;;;;;6.07;5.57;;;8.00;99.90;;;;;;6298576;28;20475;-63
2021/03/13 01:09:52;;;;;;;7.00;6.30;;;7.90;99.90;;;;;;6299381;28;20473;-63
2021/03/13 01:12:56;;;;;;;7.90;7.10;;;7.90;99.90;;;;;;6291648;28;20462;-63
2021/03/13 01:15:58;;;;;;;7.63;6.77;;;7.80;99.90;;;;;;6284855;28;20474;-64
2021/03/13 01:19:00;;;;;;;9.07;6.73;;;7.80;99.90;;;;;;6280172;28;20690;-63
2021/03/13 01:22:03;;;;;;;8.53;6.90;;;7.70;99.90;;;;;;6298730;28;20471;-62
2021/03/13 01:25:06;;;;;;;7.00;6.40;;;7.70;99.90;;;;;;6298827;28;20504;-63
2021/03/13 01:28:09;;;;;;;7.10;6.50;;;7.70;99.90;;;;;;6299496;28;20446;-63
2021/03/13 01:31:23;;;;;;;9.80;7.03;;;7.60;99.90;;;;;;6299100;28;20458;-66
2021/03/13 01:34:25;;;;;;;7.03;6.33;;;7.50;99.90;;;;;;6298960;28;20461;-65
2021/03/13 01:37:27;;;;;;;7.50;6.47;;;7.40;99.90;;;;;;6302213;28;20578;-63
2021/03/13 01:40:29;;;;;;;7.87;7.17;;;7.40;99.90;;;;;;6303922;28;20469;-63
2021/03/13 01:43:32;;;;;;;7.70;7.00;;;7.30;99.90;;;;;;6304004;28;20475;-63
2021/03/13 01:46:35;;;;;;;7.70;7.07;;;7.30;99.90;;;;;;6303699;28;20469;-65
2021/03/13 01:49:38;;;;;;;8.10;6.77;;;7.20;99.90;;;;;;6303990;28;20469;-62
2021/03/13 01:52:40;;;;;;;8.10;7.27;;;7.20;99.90;;;;;;6288196;28;20470;-65
2021/03/13 01:55:42;;;;;;;9.00;7.17;;;7.10;99.90;;;;;;6278822;28;20474;-62
2021/03/13 01:58:45;;;;;;;7.07;6.37;;;7.00;99.90;;;;;;6278970;28;20470;-63
2021/03/13 02:01:55;;;;;;;7.90;7.20;;;6.90;99.90;;;;;;6278785;28;20520;-62
2021/03/13 02:04:57;;;;;;;7.47;6.77;;;7.00;99.90;;;;;;6286912;28;20484;-61
2021/03/13 02:08:05;;;;;;;7.80;7.10;;;7.00;99.90;;;;;;6303433;28;20469;-61
2021/03/13 02:11:13;;;;;;;8.20;7.40;;;7.00;99.90;;;;;;6299129;28;20469;-63
2021/03/13 02:14:26;;;;;;;8.37;7.50;;;7.00;99.90;;;;;;6300483;28;20962;-64
2021/03/13 02:17:36;;;;;;;7.43;6.73;;;7.00;99.90;;;;;;6278372;28;20474;-61
2021/03/13 02:21:11;;;;;;;7.17;6.47;;;7.00;99.90;;;;;;6297814;28;20465;-63
2021/03/13 02:24:35;;;;;;;8.03;6.83;;;7.10;99.90;;;;;;6275012;28;21169;-62
2021/03/13 02:27:43;;;;;;;7.83;7.03;;;7.10;99.90;;;;;;6275158;28;20478;-61
2021/03/13 02:30:47;;;;;;;6.83;6.07;;;7.10;99.90;;;;;;6275162;28;20798;-61
2021/03/13 02:33:56;;;;;;;7.30;6.60;;;7.10;99.90;;;;;;6274794;28;20529;-62
2021/03/13 02:37:05;;;;;;;8.43;7.40;;;7.10;99.90;;;;;;6274827;28;20510;-61
2021/03/13 02:40:09;;;;;;;7.80;7.00;;;7.00;99.90;;;;;;6287396;28;20462;-61
2021/03/13 02:43:13;;;;;;;6.40;5.80;;;7.00;99.90;;;;;;6301701;28;20461;-62
2021/03/13 02:46:20;;;;;;;6.87;6.17;;;7.10;99.90;;;;;;6302430;28;20462;-62
2021/03/13 02:49:25;;;;;;;7.70;5.93;;;7.10;99.90;;;;;;6301589;28;20785;-62
2021/03/13 02:52:29;;;;;;;6.87;6.30;;;7.10;99.90;;;;;;6300589;28;20460;-62
2021/03/13 02:55:32;;;;;;;6.87;6.27;;;7.20;99.90;;;;;;6301986;28;20469;-62
2021/03/13 02:58:36;;;;;;;6.87;6.27;;;7.10;99.80;;;;;;6301810;28;20492;-62
2021/03/13 03:01:41;;;;;;;7.53;6.43;;;7.10;99.90;;;;;;6301537;28;20477;-63
2021/03/13 03:04:48;;;;;;;8.70;7.10;;;7.10;99.80;;;;;;6301500;28;20626;-62
2021/03/13 03:07:52;;;;;;;7.53;6.50;;;7.20;99.60;;;;;;6301047;28;20469;-62
2021/03/13 03:10:55;;;;;;;9.63;5.90;;;7.10;99.20;;;;;;6301471;28;20465;-62
2021/03/13 03:13:58;;;;;;;7.40;6.53;;;7.10;99.20;;;;;;6302277;28;20466;-62
2021/03/13 03:17:03;;;;;;;7.23;6.40;;;7.10;99.20;;;;;;6302195;28;20473;-61
2021/03/13 03:20:09;;;;;;;8.17;7.30;;;7.00;99.10;;;;;;6301781;28;20847;-61
2021/03/13 03:23:11;;;;;;;6.70;5.83;;;6.90;99.00;;;;;;6301641;28;20469;-62
2021/03/13 03:26:14;;;;;;;6.53;5.97;;;6.90;99.50;;;;;;6301783;28;20480;-62
2021/03/13 03:29:17;;;;;;;8.13;6.97;;;6.80;99.20;;;;;;6301578;28;20465;-62
2021/03/13 03:32:20;;;;;;;14.50;6.73;;;6.70;99.30;;;;;;6301526;28;20976;-62
2021/03/13 03:35:24;;;;;;;7.13;6.03;;;6.60;99.30;;;;;;6301688;28;20559;-61
2021/03/13 03:38:26;;;;;;;6.10;5.67;;;6.60;99.50;;;;;;6301577;28;20466;-61
2021/03/13 03:41:32;;;;;;;9.30;6.50;;;6.50;99.40;;;;;;6301155;28;20476;-61
2021/03/13 03:44:39;;;;;;;7.27;6.57;;;6.50;99.60;;;;;;6301208;28;20461;-62
2021/03/13 03:47:42;;;;;;;7.33;6.50;;;6.40;99.60;;;;;;6300863;28;20556;-62
2021/03/13 03:50:45;;;;;;;7.13;6.47;;;6.40;99.60;;;;;;6298076;28;20526;-61
2021/03/13 03:53:50;;;;;;;7.73;6.97;;;6.30;99.50;;;;;;6300685;28;20582;-63
2021/03/13 03:56:54;;;;;;;7.27;6.30;;;6.20;99.60;;;;;;6300192;28;20465;-61
2021/03/13 03:59:58;;;;;;;7.60;6.80;;;6.20;99.80;;;;;;6299474;28;20484;-63
2021/03/13 04:03:13;;;;;;;7.63;7.03;;;6.10;99.70;;;;;;6299944;28;20465;-63
2021/03/13 04:06:16;;;;;;;7.27;5.57;;;6.00;99.90;;;;;;6299559;28;20480;-63
2021/03/13 04:09:23;;;;;;;7.50;6.90;;;6.00;99.70;;;;;;6299264;28;20465;-64
2021/03/13 04:12:25;;;;;;;6.37;5.77;;;5.90;99.60;;;;;;6300145;28;20469;-64
2021/03/13 04:15:28;;;;;;;8.60;6.83;;;5.80;99.60;;;;;;6299660;28;20543;-63
2021/03/13 04:18:32;;;;;;;9.80;6.70;;;5.80;99.80;;;;;;6299730;28;20481;-64
2021/03/13 04:21:35;;;;;;;7.00;6.30;;;5.70;99.90;;;;;;6299896;28;20461;-63
2021/03/13 04:24:38;;;;;;;8.20;6.80;;;5.70;99.90;;;;;;6296422;28;20999;-64
2021/03/13 04:27:44;;;;;;;7.10;6.47;;;5.70;99.90;;;;;;6297345;28;20540;-64
2021/03/13 04:30:50;;;;;;;6.77;6.17;;;5.60;99.90;;;;;;6299512;28;20473;-64
2021/03/13 04:33:57;;;;;;;7.20;6.50;;;5.50;99.90;;;;;;6299013;28;20480;-63
2021/03/13 04:37:01;;;;;;;7.23;6.53;;;5.50;99.90;;;;;;6296938;28;20462;-64
2021/03/13 04:40:04;;;;;;;8.70;7.90;;;5.50;99.90;;;;;;6299016;28;21047;-63
2021/03/13 04:43:07;;;;;;;8.80;7.50;;;5.50;99.90;;;;;;6300157;28;20451;-64
2021/03/13 04:46:10;;;;;;;9.60;8.60;;;5.50;99.90;;;;;;6299654;28;20518;-65
2021/03/13 04:49:14;;;;;;;8.33;7.40;;;5.50;99.90;;;;;;6299852;28;20909;-63
2021/03/13 04:52:16;;;;;;;8.63;7.70;;;5.50;99.90;;;;;;6299758;28;20438;-63
2021/03/13 04:55:18;;;;;;;8.47;7.50;;;5.50;99.90;;;;;;6299844;28;20476;-64
2021/03/13 04:58:21;;;;;;;7.13;6.43;;;5.40;99.90;;;;;;6299577;28;20901;-64
2021/03/13 05:01:23;;;;;;;8.73;7.90;;;5.30;99.90;;;;;;6299731;28;20472;-64
2021/03/13 05:04:26;;;;;;;8.47;7.57;;;5.30;99.90;;;;;;6299951;28;20537;-63
2021/03/13 05:07:28;;;;;;;8.67;7.10;;;5.20;99.90;;;;;;6299970;28;20457;-65
2021/03/13 05:10:30;;;;;;;7.90;7.13;;;5.20;99.90;;;;;;6299382;28;20940;-64
2021/03/13 05:13:33;;;;;;;8.70;6.97;;;5.20;99.90;;;;;;6299656;28;20790;-64
2021/03/13 05:16:35;;;;;;;8.40;7.50;;;5.10;99.90;;;;;;6299522;28;20476;-64
2021/03/13 05:19:38;;;;;;;9.20;7.90;;;5.10;99.90;;;;;;6299885;28;20495;-65
2021/03/13 05:22:41;;;;;;;9.20;8.20;;;5.10;99.90;;;;;;6298968;28;20461;-63
2021/03/13 05:25:44;;;;;;;7.97;7.17;;;5.00;99.90;;;;;;6299586;28;20492;-64
2021/03/13 05:28:47;;;;;;;8.47;7.67;;;5.00;99.90;;;;;;6299289;28;21050;-65
2021/03/13 05:31:49;;;;;;;9.20;7.87;;;5.10;99.90;;;;;;6299486;28;20480;-65
2021/03/13 05:34:54;;;;;;;7.77;7.10;;;5.00;99.90;;;;;;6299108;28;20473;-64
2021/03/13 05:37:56;;;;;;;8.73;7.37;;;5.00;99.90;;;;;;6299390;28;20475;-64
2021/03/13 05:41:00;;;;;;;9.07;8.07;;;5.10;99.90;;;;;;6298956;28;20995;-65
2021/03/13 05:44:05;;;;;;;9.60;8.07;;;5.10;99.90;;;;;;6299444;28;20469;-65
2021/03/13 05:47:09;;;;;;;11.33;10.20;;;5.20;99.90;;;;;;6299018;28;20582;-63
2021/03/13 05:50:14;;;;;;;13.33;11.47;;;5.10;99.90;;;;;;6299315;28;20465;-65
2021/03/13 05:53:17;;;;;;;12.80;11.60;;;5.10;99.90;;;;;;6299158;28;20470;-64
2021/03/13 05:56:19;;;;;;;13.57;12.10;;;5.10;99.90;;;;;;6299004;28;20484;-64
2021/03/13 05:59:21;;;;;;;15.40;12.80;;;5.10;99.90;;;;;;6298947;28;20507;-62
2021/03/13 06:02:24;;;;;;;14.90;13.40;;;5.20;99.90;;;;;;6298733;28;20977;-63
2021/03/13 06:05:27;;;;;;;14.53;13.03;;;5.20;99.90;;;;;;6299078;28;20499;-63
2021/03/13 06:08:31;;;;;;;12.63;11.40;;;5.20;99.90;;;;;;6299266;28;20469;-63
2021/03/13 06:11:33;;;;;;;12.60;11.30;;;5.20;99.90;;;;;;6298914;28;20477;-63
2021/03/13 06:14:35;;;;;;;17.10;12.10;;;5.20;99.90;;;;;;6290123;28;20470;-63
2021/03/13 06:17:58;;;;;;;10.73;9.60;;;5.20;99.90;;;;;;6298584;28;20484;-63
2021/03/13 06:21:19;;;;;;;10.37;9.30;;;5.30;99.90;;;;;;6298521;28;20796;-64
2021/03/13 06:24:24;;;;;;;9.57;8.67;;;5.40;99.90;;;;;;6302304;28;20473;-65
2021/03/13 06:27:26;;;;;;;10.10;9.10;;;5.40;99.90;;;;;;6302946;28;21040;-63
2021/03/13 06:30:31;;;;;;;10.37;8.70;;;5.50;99.90;;;;;;6303013;28;20469;-63
2021/03/13 06:33:34;;;;;;;8.70;7.90;;;5.50;99.90;;;;;;6302779;28;20466;-64
2021/03/13 06:36:38;;;;;;;11.53;10.37;;;5.60;99.90;;;;;;6302725;28;20473;-64
2021/03/13 06:39:40;;;;;;;12.80;10.37;;;5.60;99.90;;;;;;6302891;28;20477;-64
2021/03/13 06:42:43;;;;;;;12.00;10.70;;;5.60;99.90;;;;;;6302864;28;20479;-64
2021/03/13 06:46:03;;;;;;;11.47;10.33;;;5.60;99.90;;;;;;6302587;28;20476;-63
2021/03/13 06:49:05;;;;;;;11.27;10.13;;;5.60;99.90;;;;;;6302304;28;20477;-63
2021/03/13 06:52:19;;;;;;;12.13;9.50;;;5.50;99.90;;;;;;6302642;28;20441;-63
2021/03/13 06:55:23;;;;;;;11.63;10.43;;;5.50;99.90;;;;;;6302632;28;20467;-63
2021/03/13 06:58:31;;;;;;;11.30;10.10;;;5.50;99.90;;;;;;6302346;28;20467;-63
2021/03/13 07:01:33;;;;;;;10.50;9.40;;;5.30;99.90;;;;;;6302494;28;20604;-64
2021/03/13 07:04:40;;;;;;;15.37;10.10;;;5.40;99.90;;;;;;6302034;28;20453;-63
2021/03/13 07:07:43;;;;;;;10.97;9.87;;;5.50;99.90;;;;;;6302810;28;20461;-63
2021/03/13 07:10:45;;;;;;;12.63;10.20;;;5.60;99.90;;;;;;6302190;28;20527;-63
2021/03/13 07:13:49;;;;;;;10.90;9.80;;;5.60;99.90;;;;;;6301931;28;20479;-64
2021/03/13 07:16:52;;;;;;;10.10;9.10;;;5.70;99.90;;;;;;6302007;28;20479;-64
2021/03/13 07:19:56;;;;;;;13.20;9.20;;;6.00;99.90;;;;;;6302130;28;20465;-64
2021/03/13 07:23:03;;;;;;;12.50;10.53;;;6.50;99.90;;;;;;6301521;28;20515;-63
2021/03/13 07:26:06;;;;;;;11.07;9.43;;;7.10;99.90;;;;;;6301446;28;20469;-62
2021/03/13 07:29:09;;;;;;;11.17;9.50;;;7.80;99.70;;;;;;6301673;28;20482;-63
2021/03/13 07:32:17;;;;;;;10.77;9.67;;;8.40;98.40;;;;;;6301770;28;20469;-63
2021/03/13 07:35:22;;;;;;;11.07;9.97;;;8.90;97.10;;;;;;6300185;28;20466;-64
2021/03/13 07:38:32;;;;;;;11.40;10.20;;;9.30;96.20;;;;;;6301584;28;20466;-64
2021/03/13 07:41:38;;;;;;;10.93;9.87;;;9.70;94.80;;;;;;6301043;28;20859;-63
2021/03/13 07:44:40;;;;;;;12.30;11.00;;;9.90;93.90;;;;;;6301222;28;20552;-64
2021/03/13 07:47:43;;;;;;;12.80;11.60;;;9.70;94.00;;;;;;6301600;28;20469;-64
2021/03/13 07:50:48;;;;;;;13.70;12.23;;;9.80;94.10;;;;;;6300982;28;20986;-65
2021/03/13 07:53:54;;;;;;;13.33;11.93;;;10.30;93.00;;;;;;6300994;28;20523;-64
2021/03/13 07:56:57;;;;;;;12.23;10.93;;;11.10;92.10;;;;;;6300634;28;20541;-64
2021/03/13 07:59:59;;;;;;;12.30;11.10;;;11.60;90.40;;;;;;6300709;28;20492;-64
2021/03/13 08:03:02;;;;;;;10.60;9.60;;;12.40;88.10;;;;;;6300524;28;20761;-64
2021/03/13 08:06:06;;;;;;;11.03;10.00;;;13.50;84.10;;;;;;6300304;28;20483;-64
2021/03/13 08:09:24;;;;;;;11.03;10.10;;;15.00;76.80;;;;;;6299601;28;20494;-64
2021/03/13 08:12:40;;;;;;;12.23;10.93;;;16.60;69.30;;;;;;6295016;28;20469;-64
2021/03/13 08:15:46;;;;;;;13.43;10.73;;;18.90;60.80;;;;;;6299542;28;21003;-65
2021/03/13 08:18:50;;;;;;;10.70;9.83;;;21.30;52.00;;;;;;6297508;28;20801;-65
2021/03/13 08:22:10;;;;;;;11.50;10.40;;;22.60;47.10;;;;;;6299558;28;20223;-65
2021/03/13 08:25:27;;;;;;;12.23;11.10;;;24.00;43.20;;;;;;6297150;28;20232;-65
2021/03/13 08:28:56;;;;;;;12.13;10.57;;;25.40;40.70;;;;;;6298362;28;20245;-65
2021/03/13 08:31:58;;;;;;;12.37;11.37;;;26.00;36.70;;;;;;6299521;28;20234;-65
2021/03/13 08:35:06;;;;;;;13.77;12.63;;;26.00;36.00;;;;;;6299672;28;20246;-65
2021/03/13 08:38:09;;;;;;;12.93;11.83;;;25.90;35.70;;;;;;6302045;28;20567;-65
2021/03/13 08:41:12;;;;;;;12.33;11.23;;;25.40;35.80;;;;;;6299109;28;20223;-65
2021/03/13 08:44:32;;;;;;;14.97;12.87;;;25.20;36.40;;;;;;6297594;28;20310;-66
2021/03/13 08:47:42;;;;;;;11.50;10.50;;;25.10;37.00;;;;;;6296243;28;20215;-64
2021/03/13 08:50:56;;;;;;;12.57;11.57;;;25.60;35.90;;;;;;6299143;28;20218;-65
2021/03/13 08:53:58;;;;;;;14.27;12.87;;;26.20;34.90;;;;;;6296938;28;20678;-64
2021/03/13 08:57:02;;;;;;;14.53;13.33;;;26.80;34.30;;;;;;6299774;28;20242;-64
2021/03/13 09:00:09;;;;;;;13.63;12.23;;;27.20;33.10;;;;;;6299829;28;20255;-65
2021/03/13 09:03:11;;;;;;;13.57;12.20;;;28.00;32.20;;;;;;6299781;28;20241;-64
2021/03/13 09:06:15;;;;;;;12.90;11.80;;;29.50;30.70;;;;;;6299666;28;20234;-65
2021/03/13 09:09:17;;;;;;;11.90;11.00;;;30.20;28.90;;;;;;6299587;28;20615;-64
2021/03/13 09:12:21;;;;;;;10.30;9.47;;;30.00;28.40;;;;;;6299679;28;20709;-64
2021/03/13 09:15:23;;;;;;;11.17;10.17;;;30.80;27.50;;;;;;6299637;28;20241;-64
2021/03/13 09:18:26;;;;;;;9.77;8.77;;;31.80;26.70;;;;;;6299436;28;20662;-65
2021/03/13 09:21:48;;;;;;;9.38;8.60;;;32.80;25.20;;;;;;6299444;28;20235;-65
2021/03/13 09:24:54;;;;;;;8.18;7.47;;;33.10;24.60;;;;;;6299266;28;20235;-65
2021/03/13 09:27:58;;;;;;;6.60;6.00;;;32.90;24.40;;;;;;6294418;28;20229;-65
2021/03/13 09:31:01;;;;;;;8.05;7.47;;;32.90;24.10;;;;;;6298894;28;20218;-65
2021/03/13 09:34:18;;;;;;;7.15;6.60;;;33.60;23.90;;;;;;6298113;28;20222;-66
2021/03/13 09:37:38;;;;;;;6.72;6.18;;;33.90;23.10;;;;;;6298807;28;20222;-64
2021/03/13 09:40:40;;;;;;;6.47;5.95;;;34.20;23.10;;;;;;6299209;28;20230;-64
2021/03/13 09:43:43;;;;;;;7.65;7.05;;;35.30;22.30;;;;;;6299087;28;20232;-64
2021/03/13 09:46:46;;;;;;;6.95;5.90;;;36.20;22.10;;;;;;6298754;28;20227;-66
2021/03/13 09:49:52;;;;;;;5.22;4.82;;;36.10;21.50;;;;;;6298135;28;20229;-66
2021/03/13 09:52:55;;;;;;;5.13;4.70;;;35.30;21.50;;;;;;6298407;28;20218;-65
2021/03/13 09:55:57;;;;;;;4.63;4.22;;;35.10;21.20;;;;;;6298635;28;20218;-64
2021/03/13 09:59:00;;;;;;;5.25;4.90;;;35.10;21.40;;;;;;6287659;28;20234;-63
2021/03/13 10:02:02;;;;;;;5.57;5.18;;;34.00;21.80;;;;;;6290883;28;20232;-63
2021/03/13 10:05:07;;;;;;;5.20;4.80;;;33.10;22.70;;;;;;6283562;28;20242;-62
2021/03/13 10:08:12;;;;;;;5.20;4.78;;;32.90;22.70;;;;;;6288534;28;20321;-64
2021/03/13 10:11:15;;;;;;;5.85;5.35;;;33.10;22.70;;;;;;6303225;28;20237;-65
2021/03/13 10:14:22;;;;;;;5.20;4.80;;;33.20;22.40;;;;;;6303298;28;20230;-64
2021/03/13 10:17:25;;;;;;;6.25;5.85;;;33.00;22.90;;;;;;6287460;28;20285;-65
2021/03/13 10:20:29;;;;;;;5.45;5.05;;;32.40;23.10;;;;;;6278064;28;20309;-65
2021/03/13 10:23:35;;;;;;;5.78;5.38;;;31.90;23.60;;;;;;6278093;28;20245;-66
2021/03/13 10:26:37;;;;;;;6.00;5.50;;;31.20;24.30;;;;;;6278044;28;20238;-67
2021/03/13 10:29:40;;;;;;;6.77;5.83;;;30.60;24.60;;;;;;6279074;28;20226;-65
2021/03/13 10:32:48;;;;;;;10.23;9.43;;;30.10;25.20;;;;;;6280065;28;20231;-65
2021/03/13 10:35:51;;;;;;;10.67;6.40;;;30.10;25.20;;;;;;6304355;28;20234;-66
2021/03/13 10:38:58;;;;;;;8.10;7.33;;;30.50;25.10;;;;;;6302864;28;20571;-66
2021/03/13 10:42:01;;;;;;;5.93;5.53;;;30.10;25.40;;;;;;6302642;28;20234;-66
2021/03/13 10:45:17;;;;;;;6.23;5.50;;;29.80;25.40;;;;;;6302582;28;20295;-67
2021/03/13 10:48:20;;;;;;;6.13;5.63;;;29.40;25.80;;;;;;6298444;28;20281;-66
2021/03/13 10:51:24;;;;;;;5.20;4.80;;;29.70;25.80;;;;;;6277464;28;20563;-65
2021/03/13 10:54:29;;;;;;;5.30;4.80;;;30.60;25.40;;;;;;6277211;28;20576;-67
2021/03/13 10:57:31;;;;;;;5.88;5.32;;;31.80;24.40;;;;;;6276887;28;20245;-66
2021/03/13 11:00:35;;;;;;;5.57;5.18;;;32.70;23.50;;;;;;6282515;28;20376;-65
2021/03/13 11:03:37;;;;;;;5.70;5.30;;;32.80;23.00;;;;;;6302586;28;20578;-64
2021/03/13 11:06:40;;;;;;;6.25;5.65;;;33.10;22.80;;;;;;6301886;28;20230;-65
2021/03/13 11:09:46;;;;;;;6.18;5.70;;;33.20;22.60;;;;;;6277377;28;20235;-65
2021/03/13 11:12:48;;;;;;;5.38;4.97;;;33.90;22.40;;;;;;6281527;28;20214;-66
2021/03/13 11:15:52;;;;;;;6.75;4.88;;;35.20;21.70;;;;;;6301727;28;20242;-67
2021/03/13 11:18:56;;;;;;;5.43;5.00;;;35.20;21.30;;;;;;6301755;28;20599;-65
2021/03/13 11:21:59;;;;;;;5.30;4.90;;;34.00;21.80;;;;;;6301241;28;20295;-65
2021/03/13 11:25:01;;;;;;;5.57;5.07;;;32.90;22.80;;;;;;6300933;28;20230;-65
2021/03/13 11:28:03;;;;;;;4.80;4.50;;;32.50;23.30;;;;;;6301494;28;20247;-65
2021/03/13 11:31:07;;;;;;;4.47;4.15;;;33.50;22.80;;;;;;6301227;28;20232;-64
2021/03/13 11:34:11;;;;;;;4.05;3.45;;;33.80;22.10;;;;;;6296200;28;20360;-66
2021/03/13 11:37:15;;;;;;;3.80;3.50;;;33.00;22.60;;;;;;6301320;28;20317;-65
2021/03/13 11:40:20;;;;;;;3.90;3.60;;;33.40;22.10;;;;;;6300938;28;20241;-66
2021/03/13 11:43:22;;;;;;;4.38;4.07;;;33.00;22.40;;;;;;6301214;28;20353;-66
2021/03/13 11:46:26;;;;;;;3.80;3.50;;;32.30;22.90;;;;;;6301452;28;20698;-65
2021/03/13 11:49:28;;;;;;;3.30;3.10;;;31.90;23.10;;;;;;6302642;28;20667;-64
2021/03/13 11:52:30;;;;;;;4.60;3.55;;;32.50;23.00;;;;;;6302729;28;20740;-64
2021/03/13 11:55:33;;;;;;;3.30;3.05;;;32.30;22.90;;;;;;6300749;28;20234;-64
2021/03/13 11:58:35;;;;;;;3.78;3.50;;;31.70;23.60;;;;;;6300823;28;20363;-64
2021/03/13 12:01:54;;;;;;;3.83;3.53;;;33.60;22.50;;;;;;6291172;28;20227;-64
2021/03/13 12:04:59;;;;;;;3.65;3.35;;;34.40;21.80;;;;;;6275842;28;20318;-64
2021/03/13 12:08:02;;;;;;;3.70;3.40;;;35.10;21.30;;;;;;6286838;28;20341;-64
2021/03/13 12:11:04;;;;;;;3.83;3.58;;;35.20;21.30;;;;;;6300506;28;20337;-64
2021/03/13 12:14:07;;;;;;;4.50;4.20;;;34.90;21.10;;;;;;6300435;28;20309;-66
2021/03/13 12:17:11;;;;;;;4.53;4.22;;;32.80;22.10;;;;;;6300540;28;20234;-65
2021/03/13 12:20:15;;;;;;;4.40;4.00;;;30.40;24.50;;;;;;6299613;28;20226;-65
2021/03/13 12:23:18;;;;;;;4.25;3.95;;;31.30;24.90;;;;;;6299790;28;20550;-65
2021/03/13 12:26:25;;;;;;;5.10;4.75;;;33.50;22.70;;;;;;6299876;28;20222;-64
2021/03/13 12:29:28;;;;;;;5.22;4.88;;;32.20;23.60;;;;;;6299986;28;20227;-64
2021/03/13 12:32:31;;;;;;;6.53;5.93;;;30.10;25.20;;;;;;6300295;28;20230;-64
2021/03/13 12:35:33;;;;;;;4.77;4.37;;;28.60;26.80;;;;;;6299839;28;20241;-64
2021/03/13 12:38:36;;;;;;;6.13;5.63;;;28.00;27.70;;;;;;6299663;28;20230;-64
2021/03/13 12:41:39;;;;;;;5.70;5.30;;;27.00;28.80;;;;;;6297782;28;20553;-64
2021/03/13 12:44:41;;;;;;;5.60;5.20;;;27.40;28.60;;;;;;6297720;28;20272;-66
2021/03/13 12:47:46;;;;;;;5.77;5.33;;;28.10;28.10;;;;;;6297832;28;20257;-64
2021/03/13 12:50:49;;;;;;;6.03;5.50;;;26.80;28.70;;;;;;6298106;28;20219;-66
2021/03/13 12:53:53;;;;;;;6.10;5.60;;;26.40;29.40;;;;;;6297741;28;20230;-65
2021/03/13 12:56:55;;;;;;;6.17;5.57;;;25.40;30.60;;;;;;6298315;28;20552;-64
2021/03/13 12:59:58;;;;;;;5.67;5.27;;;25.20;31.40;;;;;;6299581;28;20230;-65
2021/03/13 13:03:03;;;;;;;5.20;4.80;;;25.90;30.90;;;;;;6299585;28;20241;-66
2021/03/13 13:06:06;;;;;;;4.50;4.10;;;27.70;28.80;;;;;;6299701;28;20230;-65
2021/03/13 13:09:08;;;;;;;4.17;3.77;;;27.40;27.00;;;;;;6300078;28;20236;-65
2021/03/13 13:12:11;;;;;;;4.90;4.23;;;25.80;28.60;;;;;;6299195;28;20260;-65
2021/03/13 13:15:14;;;;;;;4.90;4.37;;;24.60;29.90;;;;;;6299120;28;20361;-65
2021/03/13 13:18:18;;;;;;;4.10;3.80;;;24.10;30.50;;;;;;6299757;28;20226;-65
2021/03/13 13:21:21;;;;;;;6.17;4.87;;;23.20;31.70;;;;;;6299310;28;20227;-65
2021/03/13 13:24:23;;;;;;;5.33;3.80;;;22.20;33.40;;;;;;6298943;28;20243;-64
2021/03/13 13:27:25;;;;;;;4.33;3.60;;;22.00;34.00;;;;;;6299057;28;20237;-64
2021/03/13 13:30:28;;;;;;;4.63;4.33;;;21.80;34.20;;;;;;6299770;28;20242;-65
2021/03/13 13:33:32;;;;;;;4.93;4.53;;;21.60;33.80;;;;;;6302825;28;20317;-64
2021/03/13 13:36:34;;;;;;;3.70;2.73;;;21.00;34.50;;;;;;6303916;28;20646;-64
2021/03/13 13:39:37;;;;;;;4.33;4.03;;;20.50;36.00;;;;;;6299537;28;20230;-64
2021/03/13 13:42:42;;;;;;;4.00;3.60;;;20.10;36.20;;;;;;6303575;28;20249;-65
2021/03/13 13:45:46;;;;;;;4.17;3.83;;;19.60;37.50;;;;;;6304038;28;20230;-64
2021/03/13 13:48:49;;;;;;;3.63;3.33;;;18.80;37.70;;;;;;6303848;28;20757;-64
2021/03/13 13:51:51;;;;;;;3.50;3.20;;;17.80;39.50;;;;;;6303715;28;20953;-64
2021/03/13 13:54:53;;;;;;;4.20;3.77;;;17.00;41.10;;;;;;6303522;28;20473;-65
2021/03/13 13:57:56;;;;;;;3.27;3.00;;;16.70;41.70;;;;;;6303420;28;20816;-64
2021/03/13 14:00:58;;;;;;;3.80;3.50;;;16.30;42.60;;;;;;6303319;28;20816;-64
2021/03/13 14:04:02;;;;;;;4.40;3.90;;;16.10;43.10;;;;;;6304697;28;20481;-64
2021/03/13 14:07:04;;;;;;;4.57;3.70;;;15.90;43.90;;;;;;6303215;28;20914;-64
2021/03/13 14:10:08;;;;;;;4.40;3.93;;;15.70;44.50;;;;;;6302666;28;20471;-63
2021/03/13 14:13:10;;;;;;;5.70;3.87;;;15.50;44.70;;;;;;6302972;28;20772;-64
2021/03/13 14:16:12;;;;;;;4.40;3.97;;;15.50;45.00;;;;;;6302910;28;21021;-64
2021/03/13 14:19:16;;;;;;;5.73;3.07;;;15.10;45.60;;;;;;6304221;28;20441;-64
2021/03/13 14:22:18;;;;;;;5.10;3.70;;;15.20;45.80;;;;;;6303401;28;20473;-64
2021/03/13 14:25:21;;;;;;;4.10;3.50;;;15.30;45.40;;;;;;6302620;28;20851;-64
2021/03/13 14:28:23;;;;;;;3.60;3.30;;;15.20;45.60;;;;;;6302835;28;20450;-64
2021/03/13 14:31:25;;;;;;;3.10;2.90;;;15.10;45.80;;;;;;6302596;28;20489;-64
2021/03/13 14:34:44;;;;;;;5.33;3.80;;;15.10;45.90;;;;;;6302933;28;20488;-64
2021/03/13 14:37:47;;;;;;;4.80;3.50;;;14.90;46.20;;;;;;6302681;28;20551;-64
2021/03/13 14:40:51;;;;;;;6.73;3.70;;;14.80;46.80;;;;;;6301834;28;20465;-64
2021/03/13 14:43:53;;;;;;;4.13;3.70;;;14.90;46.80;;;;;;6301917;28;20505;-64
2021/03/13 14:46:56;;;;;;;4.97;4.27;;;14.70;47.20;;;;;;6302365;28;20988;-64
2021/03/13 14:49:59;;;;;;;5.80;3.50;;;14.80;47.50;;;;;;6302495;28;20473;-64
2021/03/13 14:53:02;;;;;;;4.20;3.57;;;14.80;48.00;;;;;;6302280;28;20469;-64
2021/03/13 14:56:05;;;;;;;4.10;3.70;;;14.80;47.70;;;;;;6302276;28;20484;-64
2021/03/13 14:59:07;;;;;;;4.00;3.70;;;14.60;47.60;;;;;;6302345;28;20506;-64
2021/03/13 15:02:10;;;;;;;5.23;3.87;;;14.40;48.10;;;;;;6301846;28;20461;-64
2021/03/13 15:05:14;;;;;;;4.20;3.80;;;14.30;48.70;;;;;;6301904;28;20469;-64
2021/03/13 15:08:17;;;;;;;4.90;4.17;;;14.30;48.00;;;;;;6301976;28;20480;-63
2021/03/13 15:11:19;;;;;;;3.43;3.10;;;14.40;48.00;;;;;;6301970;28;20470;-64
2021/03/13 15:14:22;;;;;;;3.97;3.67;;;14.40;48.00;;;;;;6301515;28;20500;-64
2021/03/13 15:17:24;;;;;;;3.77;3.47;;;14.30;48.30;;;;;;6301674;28;20466;-64
2021/03/13 15:20:28;;;;;;;5.63;4.30;;;14.20;48.00;;;;;;6301296;28;20497;-64
2021/03/13 15:23:30;;;;;;;6.37;3.80;;;14.30;48.20;;;;;;6301258;28;20495;-62
2021/03/13 15:26:32;;;;;;;4.50;3.80;;;14.30;47.90;;;;;;6301315;28;20553;-62
2021/03/13 15:29:34;;;;;;;5.70;3.73;;;14.30;48.20;;;;;;6301243;28;20961;-62
2021/03/13 15:32:37;;;;;;;4.33;3.70;;;14.30;48.30;;;;;;6301409;28;21022;-62
2021/03/13 15:35:43;;;;;;;4.73;3.80;;;14.40;48.40;;;;;;6301077;28;20953;-61
2021/03/13 15:38:45;;;;;;;4.63;3.60;;;14.50;48.40;;;;;;6301078;28;20466;-64
2021/03/13 15:41:52;;;;;;;5.30;4.13;;;14.50;49.10;;;;;;6301091;28;20484;-64
2021/03/13 15:44:54;;;;;;;4.40;3.80;;;14.60;48.70;;;;;;6296272;28;20469;-64
2021/03/13 15:47:57;;;;;;;5.50;4.13;;;14.50;48.60;;;;;;6301160;28;20511;-64
2021/03/13 15:51:00;;;;;;;4.73;4.00;;;14.60;48.70;;;;;;6300999;28;20529;-63
2021/03/13 15:54:03;;;;;;;5.20;4.00;;;14.60;48.80;;;;;;6300790;28;20540;-63
2021/03/13 15:57:06;;;;;;;5.97;4.60;;;14.60;48.80;;;;;;6299957;28;20484;-64
2021/03/13 16:00:11;;;;;;;4.70;3.40;;;14.60;48.70;;;;;;6301110;28;20511;-64
2021/03/13 16:03:15;;;;;;;4.53;3.93;;;14.60;48.60;;;;;;6300857;28;20468;-63